createdAt,value
2023-05-02T00:01:21.784Z,19.75
2023-05-02T00:03:49.014Z,20.55
2023-05-02T00:06:16.141Z,20.65
2023-05-02T00:08:43.263Z,20.55
2023-05-02T00:11:10.380Z,24.70
2023-05-02T00:13:37.351Z,20.98
2023-05-02T00:16:04.774Z,21.92
2023-05-02T00:18:31.738Z,19.15
2023-05-02T00:20:58.769Z,21.13
2023-05-02T00:23:25.786Z,24.02
2023-05-02T00:25:52.811Z,22.35
2023-05-02T00:28:19.835Z,23.10
2023-05-02T00:30:47.328Z,23.23
2023-05-02T00:33:15.844Z,23.02
2023-05-02T00:35:42.874Z,20.95
2023-05-02T00:38:10.146Z,24.00
2023-05-02T00:40:48.295Z,22.17
2023-05-02T00:43:15.906Z,23.83
2023-05-02T00:45:44.185Z,24.05
2023-05-02T00:48:11.838Z,23.45
2023-05-02T00:50:40.781Z,23.70
2023-05-02T00:53:09.678Z,21.88
2023-05-02T00:55:37.161Z,24.55
2023-05-02T00:58:08.866Z,25.23
2023-05-02T01:00:54.650Z,25.13
2023-05-02T01:03:50.086Z,26.48
2023-05-02T01:06:42.192Z,24.02
2023-05-02T01:09:45.933Z,18.77
2023-05-02T01:12:24.957Z,22.05
2023-05-02T01:14:55.666Z,23.25
2023-05-02T01:17:28.030Z,24.25
2023-05-02T01:19:59.121Z,23.35
2023-05-02T01:22:30.274Z,20.85
2023-05-02T01:25:21.211Z,19.88
2023-05-02T01:27:54.759Z,21.90
2023-05-02T01:30:23.721Z,20.95
2023-05-02T01:32:53.961Z,18.42
2023-05-02T01:35:22.998Z,18.00
2023-05-02T01:37:52.123Z,15.63
2023-05-02T01:40:22.673Z,15.75
2023-05-02T01:42:51.917Z,15.80
2023-05-02T01:45:21.868Z,14.48
2023-05-02T01:47:50.013Z,16.80
2023-05-02T01:50:23.285Z,18.45
2023-05-02T01:52:54.090Z,15.55
2023-05-02T01:55:22.223Z,17.00
2023-05-02T01:57:52.285Z,20.50
2023-05-02T02:00:21.527Z,16.63
2023-05-02T02:02:51.246Z,19.90
2023-05-02T02:05:19.830Z,20.15
2023-05-02T02:07:47.039Z,19.60
2023-05-02T02:10:14.360Z,20.75
2023-05-02T02:12:52.264Z,19.60
2023-05-02T02:15:25.709Z,19.33
2023-05-02T02:18:00.367Z,18.58
2023-05-02T02:20:29.566Z,17.20
2023-05-02T02:22:58.753Z,17.33
2023-05-02T02:25:27.027Z,19.52
2023-05-02T02:27:54.511Z,15.25
2023-05-02T02:30:21.536Z,15.00
2023-05-02T02:32:48.537Z,13.10
2023-05-02T02:35:15.855Z,14.82
2023-05-02T02:38:11.132Z,15.35
2023-05-02T02:41:00.981Z,14.55
2023-05-02T02:43:36.295Z,12.50
2023-05-02T02:46:09.600Z,14.23
2023-05-02T02:48:57.452Z,12.73
2023-05-02T02:51:48.180Z,15.77
2023-05-02T02:54:30.046Z,16.27
2023-05-02T02:57:19.720Z,18.13
2023-05-02T02:59:59.918Z,19.23
2023-05-02T03:02:32.766Z,23.05
2023-05-02T03:05:02.487Z,19.73
2023-05-02T03:07:30.489Z,18.25
2023-05-02T03:09:59.605Z,14.85
2023-05-02T03:12:27.387Z,14.05
2023-05-02T03:15:03.298Z,15.02
2023-05-02T03:17:30.434Z,13.65
2023-05-02T03:19:57.640Z,15.07
2023-05-02T03:22:24.851Z,18.08
2023-05-02T03:24:52.388Z,13.65
2023-05-02T03:27:19.403Z,20.38
2023-05-02T03:29:47.813Z,18.92
2023-05-02T03:32:15.073Z,20.40
2023-05-02T03:34:43.840Z,20.15
2023-05-02T03:37:11.623Z,19.63
2023-05-02T03:39:38.727Z,18.70
2023-05-02T03:42:06.026Z,18.48
2023-05-02T03:44:32.934Z,17.83
2023-05-02T03:47:00.055Z,16.92
2023-05-02T03:49:28.320Z,17.95
2023-05-02T03:51:55.333Z,19.52
2023-05-02T03:54:27.194Z,18.15
2023-05-02T03:56:55.505Z,20.05
2023-05-02T03:59:28.240Z,19.00
2023-05-02T04:01:56.468Z,20.60
2023-05-02T04:04:32.526Z,20.50
2023-05-02T04:06:59.875Z,17.65
2023-05-02T04:09:27.110Z,20.52
2023-05-02T04:11:59.037Z,20.00
2023-05-02T04:14:25.984Z,20.23
2023-05-02T04:16:54.846Z,19.58
2023-05-02T04:19:30.327Z,17.70
2023-05-02T04:21:57.601Z,17.13
2023-05-02T04:24:25.024Z,17.60
2023-05-02T04:26:52.160Z,22.85
2023-05-02T04:29:19.546Z,24.45
2023-05-02T04:31:46.802Z,20.80
2023-05-02T04:34:15.453Z,14.15
2023-05-02T04:36:46.360Z,17.58
2023-05-02T04:39:17.495Z,16.02
2023-05-02T04:41:53.802Z,16.70
2023-05-02T04:44:39.329Z,15.48
2023-05-02T04:47:06.510Z,14.55
2023-05-02T04:49:33.533Z,14.98
2023-05-02T04:52:00.623Z,14.45
2023-05-02T04:54:28.114Z,16.40
2023-05-02T04:56:55.071Z,15.60
2023-05-02T04:59:23.377Z,12.98
2023-05-02T05:01:50.466Z,14.00
2023-05-02T05:04:18.178Z,14.30
2023-05-02T05:06:47.435Z,12.30
2023-05-02T05:09:14.872Z,12.18
2023-05-02T05:11:43.614Z,11.05
2023-05-02T05:14:10.615Z,10.55
2023-05-02T05:16:39.721Z,10.52
2023-05-02T05:19:06.846Z,10.07
2023-05-02T05:21:35.067Z,10.60
2023-05-02T05:24:03.305Z,11.55
2023-05-02T05:26:30.459Z,10.68
2023-05-02T05:28:58.009Z,9.27
2023-05-02T05:31:27.932Z,10.35
2023-05-02T05:33:58.943Z,8.90
2023-05-02T05:36:27.880Z,8.77
2023-05-02T05:38:54.802Z,8.75
2023-05-02T05:41:23.214Z,9.55
2023-05-02T05:43:56.368Z,9.32
2023-05-02T05:46:25.410Z,7.90
2023-05-02T05:48:52.360Z,9.38
2023-05-02T05:51:19.708Z,9.32
2023-05-02T05:53:47.009Z,7.13
2023-05-02T05:56:14.532Z,8.07
2023-05-02T05:58:47.968Z,8.68
2023-05-02T06:01:15.344Z,9.50
2023-05-02T06:03:42.497Z,7.88
2023-05-02T06:06:09.637Z,8.82
2023-05-02T06:08:36.833Z,7.53
2023-05-02T06:11:09.813Z,9.57
2023-05-02T06:13:37.143Z,8.55
2023-05-02T06:16:05.334Z,8.10
2023-05-02T06:18:32.709Z,7.35
2023-05-02T06:21:06.575Z,9.30
2023-05-02T06:23:33.512Z,8.63
2023-05-02T06:26:02.222Z,6.90
2023-05-02T06:28:30.017Z,10.75
2023-05-02T06:31:04.809Z,9.98
2023-05-02T06:33:32.977Z,10.18
2023-05-02T06:36:01.733Z,54.35
2023-05-02T06:38:29.814Z,9.15
2023-05-02T06:40:56.684Z,9.45
2023-05-02T06:43:23.812Z,8.10
2023-05-02T06:45:54.583Z,8.00
2023-05-02T06:48:21.799Z,8.63
2023-05-02T06:50:49.471Z,8.82
2023-05-02T06:53:16.447Z,9.07
2023-05-02T06:55:45.003Z,9.00
2023-05-02T06:58:12.356Z,9.80
2023-05-02T07:00:39.346Z,9.95
2023-05-02T07:03:06.751Z,7.78
2023-05-02T07:05:33.772Z,9.90
2023-05-02T07:08:00.782Z,10.18
2023-05-02T07:10:27.839Z,8.32
2023-05-02T07:12:54.777Z,8.98
2023-05-02T07:15:21.739Z,9.25
2023-05-02T07:17:49.660Z,10.10
2023-05-02T07:20:16.763Z,7.80
2023-05-02T07:22:43.720Z,7.95
2023-05-02T07:25:10.959Z,7.03
2023-05-02T07:27:38.072Z,8.55
2023-05-02T07:30:06.653Z,8.90
2023-05-02T07:32:33.836Z,7.75
2023-05-02T07:35:01.836Z,6.97
2023-05-02T07:37:34.511Z,6.68
2023-05-02T07:40:02.231Z,7.65
2023-05-02T07:42:33.018Z,7.72
2023-05-02T07:45:00.364Z,9.38
2023-05-02T07:47:27.668Z,7.07
2023-05-02T07:49:55.992Z,9.13
2023-05-02T07:52:22.965Z,6.28
2023-05-02T07:54:50.280Z,5.78
2023-05-02T07:57:18.094Z,6.05
2023-05-02T07:59:45.276Z,6.57
2023-05-02T08:02:13.903Z,5.47
2023-05-02T08:04:41.533Z,8.38
2023-05-02T08:07:08.850Z,9.15
2023-05-02T08:09:35.857Z,6.57
2023-05-02T08:12:03.369Z,6.38
2023-05-02T08:14:30.493Z,7.20
2023-05-02T08:16:58.501Z,5.75
2023-05-02T08:19:25.539Z,6.28
2023-05-02T08:21:54.399Z,6.97
2023-05-02T08:24:21.986Z,6.00
2023-05-02T08:26:48.873Z,6.38
2023-05-02T08:29:16.239Z,7.10
2023-05-02T08:31:43.436Z,6.68
2023-05-02T08:34:10.543Z,7.43
2023-05-02T08:36:37.583Z,5.45
2023-05-02T08:39:04.657Z,6.40
2023-05-02T08:41:31.731Z,8.88
2023-05-02T08:43:59.900Z,9.10
2023-05-02T08:46:28.534Z,6.22
2023-05-02T08:48:59.185Z,6.80
2023-05-02T08:51:29.088Z,6.97
2023-05-02T08:53:58.553Z,6.93
2023-05-02T08:56:26.724Z,5.88
2023-05-02T08:58:53.755Z,6.05
2023-05-02T09:01:23.813Z,7.20
2023-05-02T09:03:52.287Z,7.30
2023-05-02T09:06:21.937Z,6.97
2023-05-02T09:08:50.132Z,5.78
2023-05-02T09:11:18.182Z,5.88
2023-05-02T09:13:47.236Z,5.50
2023-05-02T09:16:18.307Z,5.68
2023-05-02T09:18:48.011Z,6.13
2023-05-02T09:21:20.638Z,6.47
2023-05-02T09:23:56.565Z,5.75
2023-05-02T09:26:34.909Z,6.90
2023-05-02T09:29:04.696Z,7.40
2023-05-02T09:34:15.742Z,6.45
2023-05-02T09:36:45.377Z,5.93
2023-05-02T09:39:25.563Z,5.30
2023-05-02T09:41:53.444Z,6.35
2023-05-02T09:44:25.265Z,6.47
2023-05-02T09:46:54.217Z,5.32
2023-05-02T09:49:39.521Z,7.05
2023-05-02T09:52:13.886Z,7.43
2023-05-02T09:54:41.057Z,5.03
2023-05-02T09:57:08.137Z,4.97
2023-05-02T09:59:35.085Z,6.95
2023-05-02T10:02:07.495Z,5.00
2023-05-02T10:04:35.290Z,5.20
2023-05-02T10:07:03.595Z,7.70
2023-05-02T10:09:33.985Z,5.80
2023-05-02T10:12:05.109Z,7.15
2023-05-02T10:14:39.275Z,6.47
2023-05-02T10:17:13.192Z,7.63
2023-05-02T10:20:07.324Z,5.95
2023-05-02T10:22:35.337Z,5.28
2023-05-02T10:25:03.822Z,6.05
2023-05-02T10:27:32.904Z,6.43
2023-05-02T10:30:00.708Z,5.90
2023-05-02T10:32:33.411Z,7.13
2023-05-02T10:35:08.221Z,5.25
2023-05-02T10:37:38.433Z,5.28
2023-05-02T10:40:06.480Z,5.65
2023-05-02T10:42:39.616Z,5.38
2023-05-02T10:45:30.358Z,4.00
2023-05-02T10:48:17.147Z,3.70
2023-05-02T10:50:51.304Z,3.10
2023-05-02T10:53:30.208Z,2.42
2023-05-02T10:56:18.181Z,2.67
2023-05-02T10:58:46.433Z,2.20
2023-05-02T11:01:28.717Z,2.15
2023-05-02T11:03:58.059Z,2.17
2023-05-02T11:06:26.517Z,3.53
2023-05-02T11:09:13.842Z,7.07
2023-05-02T11:11:44.604Z,3.80
2023-05-02T11:14:32.447Z,2.05
2023-05-02T11:17:04.502Z,2.47
2023-05-02T11:19:57.548Z,1.85
2023-05-02T11:22:27.141Z,4.57
2023-05-02T11:24:54.499Z,2.30
2023-05-02T11:27:30.596Z,2.85
2023-05-02T11:30:01.460Z,2.72
2023-05-02T11:32:55.665Z,2.95
2023-05-02T11:35:24.956Z,2.55
2023-05-02T11:37:54.978Z,3.20
2023-05-02T11:40:22.818Z,2.65
2023-05-02T11:42:49.786Z,2.38
2023-05-02T11:45:17.151Z,3.17
2023-05-02T11:47:46.488Z,2.50
2023-05-02T11:50:14.509Z,3.13
2023-05-02T11:52:43.424Z,3.67
2023-05-02T11:55:15.235Z,4.25
2023-05-02T11:57:42.997Z,2.65
2023-05-02T12:00:13.591Z,3.58
2023-05-02T12:02:41.351Z,3.97
2023-05-02T12:05:10.923Z,3.15
2023-05-02T12:07:43.088Z,2.40
2023-05-02T12:10:11.095Z,2.10
2023-05-02T12:12:39.738Z,3.67
2023-05-02T12:15:08.573Z,3.50
2023-05-02T12:17:40.687Z,2.05
2023-05-02T12:20:12.291Z,3.55
2023-05-02T12:22:39.527Z,3.47
2023-05-02T12:25:07.227Z,2.88
2023-05-02T12:27:35.239Z,2.15
2023-05-02T12:30:02.821Z,2.33
2023-05-02T12:32:32.903Z,2.25
2023-05-02T12:35:02.083Z,2.30
2023-05-02T12:37:29.320Z,3.83
2023-05-02T12:39:56.858Z,3.63
2023-05-02T12:42:25.976Z,3.13
2023-05-02T12:44:53.336Z,2.70
2023-05-02T12:47:22.900Z,3.40
2023-05-02T12:49:50.622Z,3.53
2023-05-02T12:52:21.953Z,4.25
2023-05-02T12:54:48.982Z,3.08
2023-05-02T12:57:26.403Z,4.53
2023-05-02T12:59:56.734Z,5.47
2023-05-02T13:02:23.973Z,3.42
2023-05-02T13:04:51.528Z,5.82
2023-05-02T13:07:18.413Z,5.72
2023-05-02T13:09:45.338Z,4.88
2023-05-02T13:12:12.644Z,5.50
2023-05-02T13:14:39.890Z,3.90
2023-05-02T13:17:08.743Z,3.58
2023-05-02T13:19:37.380Z,5.97
2023-05-02T13:22:05.897Z,4.40
2023-05-02T13:24:32.901Z,4.43
2023-05-02T13:26:59.785Z,4.93
2023-05-02T13:29:26.777Z,2.75
2023-05-02T13:31:53.711Z,4.30
2023-05-02T13:34:20.717Z,3.42
2023-05-02T13:36:47.687Z,4.70
2023-05-02T13:39:14.884Z,3.38
2023-05-02T13:41:41.982Z,5.18
2023-05-02T13:44:09.498Z,6.97
2023-05-02T13:46:37.860Z,4.93
2023-05-02T13:49:05.990Z,6.60
2023-05-02T13:51:33.236Z,4.85
2023-05-02T13:54:01.099Z,6.55
2023-05-02T13:56:28.193Z,6.10
2023-05-02T13:58:55.208Z,6.93
2023-05-02T14:01:22.685Z,6.03
2023-05-02T14:03:50.962Z,5.47
2023-05-02T14:06:18.167Z,6.93
2023-05-02T14:08:45.366Z,5.75
2023-05-02T14:11:12.483Z,5.88
2023-05-02T14:13:39.396Z,5.53
2023-05-02T14:16:06.578Z,5.90
2023-05-02T14:18:33.667Z,6.32
2023-05-02T14:21:01.097Z,7.50
2023-05-02T14:23:30.815Z,7.85
2023-05-02T14:25:57.752Z,8.98
2023-05-02T14:28:24.707Z,6.18
2023-05-02T14:30:52.032Z,6.15
2023-05-02T14:33:19.075Z,7.07
2023-05-02T14:35:49.118Z,7.95
2023-05-02T14:38:16.286Z,6.70
2023-05-02T14:40:43.257Z,6.30
2023-05-02T14:43:12.469Z,7.65
2023-05-02T14:45:39.377Z,6.15
2023-05-02T14:48:08.023Z,5.28
2023-05-02T14:50:37.237Z,7.55
2023-05-02T14:53:04.192Z,7.38
2023-05-02T14:55:35.701Z,6.43
2023-05-02T14:58:02.924Z,5.43
2023-05-02T15:00:30.094Z,6.80
2023-05-02T15:02:57.174Z,6.47
2023-05-02T15:05:24.395Z,8.05
2023-05-02T15:07:51.385Z,6.57
2023-05-02T15:10:18.312Z,6.07
2023-05-02T15:12:46.825Z,6.45
2023-05-02T15:15:14.530Z,6.88
2023-05-02T15:17:41.537Z,8.13
2023-05-02T15:20:09.080Z,8.63
2023-05-02T15:22:36.013Z,6.32
2023-05-02T15:25:04.584Z,6.95
2023-05-02T15:27:32.354Z,6.22
2023-05-02T15:29:59.696Z,7.00
2023-05-02T15:32:26.870Z,7.57
2023-05-02T15:34:54.008Z,7.05
2023-05-02T15:37:21.221Z,5.78
2023-05-02T15:39:48.173Z,6.47
2023-05-02T15:42:15.101Z,6.15
2023-05-02T15:44:42.149Z,7.38
2023-05-02T15:47:09.105Z,6.05
2023-05-02T15:49:36.461Z,7.82
2023-05-02T15:52:03.514Z,6.28
2023-05-02T15:54:32.128Z,6.40
2023-05-02T15:56:59.349Z,7.00
2023-05-02T15:59:26.250Z,6.95
2023-05-02T16:01:53.519Z,8.90
2023-05-02T16:04:20.616Z,7.07
2023-05-02T16:06:47.597Z,7.63
2023-05-02T16:09:14.591Z,6.47
2023-05-02T16:11:41.940Z,6.93
2023-05-02T16:14:08.977Z,6.88
2023-05-02T16:16:36.047Z,6.88
2023-05-02T16:19:03.200Z,7.03
2023-05-02T16:21:30.112Z,6.18
2023-05-02T16:23:57.062Z,8.02
2023-05-02T16:26:24.180Z,6.40
2023-05-02T16:28:51.238Z,7.80
2023-05-02T16:31:18.344Z,7.43
2023-05-02T16:33:45.722Z,6.60
2023-05-02T16:36:14.609Z,5.93
2023-05-02T16:38:41.812Z,7.20
2023-05-02T16:41:10.236Z,6.90
2023-05-02T16:43:37.738Z,5.60
2023-05-02T16:46:06.143Z,5.90
2023-05-02T16:48:34.072Z,7.18
2023-05-02T16:51:03.784Z,5.85
2023-05-02T16:53:31.687Z,6.18
2023-05-02T16:55:59.575Z,6.65
2023-05-02T16:58:29.115Z,5.97
2023-05-02T17:00:56.413Z,5.00
2023-05-02T17:03:23.469Z,5.60
2023-05-02T17:05:50.747Z,5.72
2023-05-02T17:08:17.701Z,5.85
2023-05-02T17:10:49.836Z,4.90
2023-05-02T17:13:16.917Z,5.95
2023-05-02T17:15:43.996Z,6.03
2023-05-02T17:18:11.669Z,5.10
2023-05-02T17:20:38.881Z,5.50
2023-05-02T17:23:06.000Z,6.25
2023-05-02T17:25:33.181Z,4.57
2023-05-02T17:28:00.349Z,4.65
2023-05-02T17:30:27.374Z,6.60
2023-05-02T17:32:54.465Z,4.80
2023-05-02T17:35:21.581Z,4.93
2023-05-02T17:37:48.505Z,4.85
2023-05-02T17:40:15.421Z,5.43
2023-05-02T17:42:48.976Z,4.70
2023-05-02T17:45:16.686Z,4.65
2023-05-02T17:47:43.957Z,5.60
2023-05-02T17:50:11.206Z,6.25
2023-05-02T17:52:38.766Z,5.18
2023-05-02T17:55:06.782Z,6.47
2023-05-02T17:57:33.763Z,6.38
2023-05-02T18:00:01.363Z,5.20
2023-05-02T18:02:28.733Z,6.03
2023-05-02T18:04:55.793Z,6.00
2023-05-02T18:07:28.983Z,6.45
2023-05-02T18:10:02.237Z,7.45
2023-05-02T18:12:29.698Z,5.93
2023-05-02T18:14:56.911Z,5.50
2023-05-02T18:17:24.258Z,5.93
2023-05-02T18:19:51.345Z,4.72
2023-05-02T18:22:21.293Z,5.28
2023-05-02T18:24:49.641Z,5.75
2023-05-02T18:27:17.209Z,6.55
2023-05-02T18:29:44.398Z,6.25
2023-05-02T18:32:11.422Z,6.75
2023-05-02T18:34:39.192Z,7.35
2023-05-02T18:37:06.981Z,7.18
2023-05-02T18:39:35.390Z,7.07
2023-05-02T18:42:03.565Z,7.15
2023-05-02T18:44:31.253Z,7.20
2023-05-02T18:46:58.185Z,9.52
2023-05-02T18:49:26.285Z,7.18
2023-05-02T18:51:54.557Z,6.40
2023-05-02T18:54:23.336Z,7.80
2023-05-02T18:56:50.465Z,8.75
2023-05-02T18:59:18.849Z,6.28
2023-05-02T19:01:48.549Z,6.65
2023-05-02T19:04:16.499Z,8.93
2023-05-02T19:06:43.656Z,6.32
2023-05-02T19:09:13.227Z,6.60
2023-05-02T19:11:40.711Z,7.05
2023-05-02T19:14:08.213Z,6.68
2023-05-02T19:16:38.082Z,7.93
2023-05-02T19:19:05.457Z,6.35
2023-05-02T19:21:34.131Z,5.35
2023-05-02T19:26:29.020Z,5.72
2023-05-02T19:28:57.048Z,13.40
2023-05-02T19:31:24.315Z,19.85
2023-05-02T19:33:51.720Z,5.82
2023-05-02T19:36:20.366Z,5.13
2023-05-02T19:38:55.013Z,5.78
2023-05-02T19:41:24.724Z,8.50
2023-05-02T19:43:51.920Z,7.20
2023-05-02T19:46:19.492Z,6.03
2023-05-02T19:48:46.422Z,5.65
2023-05-02T19:51:13.579Z,5.35
2023-05-02T19:53:40.531Z,5.47
2023-05-02T19:56:07.511Z,5.30
2023-05-02T19:58:34.864Z,7.07
2023-05-02T20:01:01.943Z,6.13
2023-05-02T20:03:29.131Z,5.53
2023-05-02T20:05:57.547Z,7.60
2023-05-02T20:08:27.565Z,6.10
2023-05-02T20:10:55.601Z,6.00
2023-05-02T20:13:22.723Z,6.53
2023-05-02T20:15:50.804Z,5.82
2023-05-02T20:18:17.912Z,5.57
2023-05-02T20:20:45.600Z,6.32
2023-05-02T20:23:13.444Z,6.85
2023-05-02T20:25:41.228Z,5.28
2023-05-02T20:28:09.552Z,6.30
2023-05-02T20:30:36.564Z,7.45
2023-05-02T20:33:13.878Z,5.72
2023-05-02T20:35:41.584Z,6.20
2023-05-02T20:38:09.896Z,6.30
2023-05-02T20:40:43.449Z,5.93
2023-05-02T20:43:11.815Z,5.82
2023-05-02T20:45:40.114Z,5.82
2023-05-02T20:48:07.211Z,5.15
2023-05-02T20:50:34.295Z,5.05
2023-05-02T20:53:01.494Z,5.03
2023-05-02T20:55:28.693Z,5.20
2023-05-02T20:57:55.703Z,5.00
2023-05-02T21:00:22.860Z,5.05
2023-05-02T21:02:49.976Z,4.38
2023-05-02T21:05:17.215Z,4.93
2023-05-02T21:07:44.836Z,4.97
2023-05-02T21:10:11.932Z,5.22
2023-05-02T21:12:39.496Z,5.25
2023-05-02T21:15:07.748Z,4.43
2023-05-02T21:17:34.863Z,6.47
2023-05-02T21:20:02.184Z,5.13
2023-05-02T21:22:29.453Z,4.88
2023-05-02T21:24:56.518Z,4.82
2023-05-02T21:27:23.627Z,5.53
2023-05-02T21:29:50.938Z,5.43
2023-05-02T21:32:17.878Z,4.75
2023-05-02T21:34:44.769Z,4.38
2023-05-02T21:37:11.886Z,5.10
2023-05-02T21:39:39.116Z,5.30
2023-05-02T21:42:06.178Z,5.60
2023-05-02T21:44:33.202Z,5.65
2023-05-02T21:47:00.195Z,5.72
2023-05-02T21:49:30.012Z,8.00
2023-05-02T21:52:01.029Z,5.20
2023-05-02T21:54:33.168Z,5.30
2023-05-02T21:57:03.171Z,6.65
2023-05-02T21:59:31.763Z,6.45
2023-05-02T22:02:06.023Z,7.50
2023-05-02T22:04:36.281Z,7.72
2023-05-02T22:07:04.415Z,8.68
2023-05-02T22:09:33.768Z,6.93
2023-05-02T22:12:05.674Z,6.57
2023-05-02T22:14:41.587Z,7.78
2023-05-02T22:17:12.120Z,8.02
2023-05-02T22:19:39.348Z,7.65
2023-05-02T22:22:06.729Z,7.82
2023-05-02T22:24:34.089Z,8.20
2023-05-02T22:27:01.605Z,7.40
2023-05-02T22:29:29.146Z,7.32
2023-05-02T22:31:56.176Z,7.93
2023-05-02T22:34:23.299Z,7.15
2023-05-02T22:36:50.299Z,6.72
2023-05-02T22:39:17.261Z,6.68
2023-05-02T22:41:44.366Z,9.60
2023-05-02T22:44:11.620Z,9.52
2023-05-02T22:46:38.985Z,6.78
2023-05-02T22:49:10.434Z,7.75
2023-05-02T22:51:40.180Z,6.40
2023-05-02T22:54:08.097Z,6.35
2023-05-02T22:56:35.482Z,6.85
2023-05-02T22:59:02.427Z,6.07
2023-05-02T23:01:29.508Z,6.85
2023-05-02T23:03:56.610Z,6.97
2023-05-02T23:06:23.676Z,7.57
2023-05-02T23:08:50.814Z,7.68
2023-05-02T23:11:17.796Z,7.03
2023-05-02T23:13:44.872Z,6.20
2023-05-02T23:16:11.931Z,6.20
2023-05-02T23:18:38.944Z,6.45
2023-05-02T23:21:13.286Z,6.50
2023-05-02T23:23:40.349Z,8.60
2023-05-02T23:26:08.782Z,7.07
2023-05-02T23:28:35.730Z,7.55
2023-05-02T23:31:03.339Z,6.68
2023-05-02T23:33:31.453Z,6.85
2023-05-02T23:35:58.843Z,7.03
2023-05-02T23:38:26.184Z,6.35
2023-05-02T23:40:53.196Z,8.00
2023-05-02T23:43:21.802Z,7.05
2023-05-02T23:45:48.734Z,7.05
2023-05-02T23:48:15.688Z,7.38
2023-05-02T23:50:42.792Z,6.85
2023-05-02T23:53:09.697Z,6.22
2023-05-02T23:55:36.929Z,8.52
2023-05-02T23:58:03.895Z,7.93
